sensor_id;sensor_type;location;lat;lon;timestamp;temperature;humidity
1355;DHT22;671;48.972;9.276;2023-05-20T00:01:36;12.50;99.90
1355;DHT22;671;48.972;9.276;2023-05-20T00:04:03;12.60;99.90
1355;DHT22;671;48.972;9.276;2023-05-20T00:06:29;12.60;99.90
1355;DHT22;671;48.972;9.276;2023-05-20T00:08:57;12.60;99.90
1355;DHT22;671;48.972;9.276;2023-05-20T00:11:25;12.60;99.90
1355;DHT22;671;48.972;9.276;2023-05-20T00:13:51;12.60;99.90
1355;DHT22;671;48.972;9.276;2023-05-20T00:16:18;12.60;99.90
1355;DHT22;671;48.972;9.276;2023-05-20T00:18:44;12.60;99.90
1355;DHT22;671;48.972;9.276;2023-05-20T00:21:11;12.60;99.90
1355;DHT22;671;48.972;9.276;2023-05-20T00:23:37;12.70;99.90
1355;DHT22;671;48.972;9.276;2023-05-20T00:26:04;12.70;99.90
1355;DHT22;671;48.972;9.276;2023-05-20T00:28:30;12.70;99.90
1355;DHT22;671;48.972;9.276;2023-05-20T00:30:57;12.70;99.90
1355;DHT22;671;48.972;9.276;2023-05-20T00:33:23;12.60;99.90
1355;DHT22;671;48.972;9.276;2023-05-20T00:35:50;12.70;99.90
1355;DHT22;671;48.972;9.276;2023-05-20T00:38:16;12.70;99.90
1355;DHT22;671;48.972;9.276;2023-05-20T00:40:43;12.70;99.90
1355;DHT22;671;48.972;9.276;2023-05-20T00:43:10;12.70;99.90
1355;DHT22;671;48.972;9.276;2023-05-20T00:45:37;12.80;99.90
1355;DHT22;671;48.972;9.276;2023-05-20T00:48:04;12.90;99.90
1355;DHT22;671;48.972;9.276;2023-05-20T00:50:31;12.90;99.90
1355;DHT22;671;48.972;9.276;2023-05-20T00:52:57;13.00;99.90
1355;DHT22;671;48.972;9.276;2023-05-20T00:55:24;13.00;99.90
1355;DHT22;671;48.972;9.276;2023-05-20T00:57:52;13.10;99.90
1355;DHT22;671;48.972;9.276;2023-05-20T01:00:19;13.10;99.90
1355;DHT22;671;48.972;9.276;2023-05-20T01:02:45;13.10;99.90
1355;DHT22;671;48.972;9.276;2023-05-20T01:05:12;13.10;99.90
1355;DHT22;671;48.972;9.276;2023-05-20T01:07:38;13.10;99.90
1355;DHT22;671;48.972;9.276;2023-05-20T01:10:05;13.00;99.90
1355;DHT22;671;48.972;9.276;2023-05-20T01:12:42;13.00;99.90
1355;DHT22;671;48.972;9.276;2023-05-20T01:15:11;13.10;99.90
1355;DHT22;671;48.972;9.276;2023-05-20T01:17:43;13.00;99.90
1355;DHT22;671;48.972;9.276;2023-05-20T01:20:13;13.00;99.90
1355;DHT22;671;48.972;9.276;2023-05-20T01:22:53;13.00;99.90
1355;DHT22;671;48.972;9.276;2023-05-20T01:25:20;13.00;99.90
1355;DHT22;671;48.972;9.276;2023-05-20T01:27:47;13.10;99.90
1355;DHT22;671;48.972;9.276;2023-05-20T01:30:15;13.10;99.90
1355;DHT22;671;48.972;9.276;2023-05-20T01:32:49;13.10;99.90
1355;DHT22;671;48.972;9.276;2023-05-20T01:35:18;13.10;99.90
1355;DHT22;671;48.972;9.276;2023-05-20T01:37:46;13.10;99.90
1355;DHT22;671;48.972;9.276;2023-05-20T01:40:14;13.10;99.90
1355;DHT22;671;48.972;9.276;2023-05-20T01:42:42;13.20;99.90
1355;DHT22;671;48.972;9.276;2023-05-20T01:45:09;13.10;99.90
1355;DHT22;671;48.972;9.276;2023-05-20T01:47:36;13.10;99.90
1355;DHT22;671;48.972;9.276;2023-05-20T01:50:03;13.10;99.90
1355;DHT22;671;48.972;9.276;2023-05-20T01:52:29;13.10;99.90
1355;DHT22;671;48.972;9.276;2023-05-20T01:54:57;13.10;99.90
1355;DHT22;671;48.972;9.276;2023-05-20T01:57:23;13.00;99.90
1355;DHT22;671;48.972;9.276;2023-05-20T01:59:50;13.00;99.90
1355;DHT22;671;48.972;9.276;2023-05-20T02:02:16;13.00;99.90
1355;DHT22;671;48.972;9.276;2023-05-20T02:04:44;13.00;99.90
1355;DHT22;671;48.972;9.276;2023-05-20T02:07:17;13.00;99.90
1355;DHT22;671;48.972;9.276;2023-05-20T02:09:44;12.90;99.90
1355;DHT22;671;48.972;9.276;2023-05-20T02:12:11;12.90;99.90
1355;DHT22;671;48.972;9.276;2023-05-20T02:14:46;12.90;99.90
1355;DHT22;671;48.972;9.276;2023-05-20T02:17:13;12.90;99.90
1355;DHT22;671;48.972;9.276;2023-05-20T02:19:42;12.90;99.90
1355;DHT22;671;48.972;9.276;2023-05-20T02:22:09;12.90;99.90
1355;DHT22;671;48.972;9.276;2023-05-20T02:24:35;12.80;99.90
1355;DHT22;671;48.972;9.276;2023-05-20T02:27:02;12.80;99.90
1355;DHT22;671;48.972;9.276;2023-05-20T02:29:29;12.80;99.90
1355;DHT22;671;48.972;9.276;2023-05-20T02:31:56;12.80;99.90
1355;DHT22;671;48.972;9.276;2023-05-20T02:34:23;12.70;99.90
1355;DHT22;671;48.972;9.276;2023-05-20T02:36:51;12.70;99.90
1355;DHT22;671;48.972;9.276;2023-05-20T02:39:18;12.70;99.90
1355;DHT22;671;48.972;9.276;2023-05-20T02:41:44;12.60;99.90
1355;DHT22;671;48.972;9.276;2023-05-20T02:44:11;12.60;99.90
1355;DHT22;671;48.972;9.276;2023-05-20T02:46:37;12.60;99.90
1355;DHT22;671;48.972;9.276;2023-05-20T02:49:04;12.60;99.90
1355;DHT22;671;48.972;9.276;2023-05-20T02:51:30;12.60;99.90
1355;DHT22;671;48.972;9.276;2023-05-20T02:53:59;12.60;99.90
1355;DHT22;671;48.972;9.276;2023-05-20T02:56:26;12.60;99.90
1355;DHT22;671;48.972;9.276;2023-05-20T02:58:53;12.60;99.90
1355;DHT22;671;48.972;9.276;2023-05-20T03:01:20;12.60;99.90
1355;DHT22;671;48.972;9.276;2023-05-20T03:03:47;12.60;99.90
1355;DHT22;671;48.972;9.276;2023-05-20T03:06:13;12.60;99.90
1355;DHT22;671;48.972;9.276;2023-05-20T03:08:40;12.60;99.90
1355;DHT22;671;48.972;9.276;2023-05-20T03:11:07;12.60;99.90
1355;DHT22;671;48.972;9.276;2023-05-20T03:13:34;12.60;99.90
1355;DHT22;671;48.972;9.276;2023-05-20T03:16:00;12.60;99.90
1355;DHT22;671;48.972;9.276;2023-05-20T03:18:27;12.60;99.90
1355;DHT22;671;48.972;9.276;2023-05-20T03:20:53;12.60;99.90
1355;DHT22;671;48.972;9.276;2023-05-20T03:23:20;12.60;99.90
1355;DHT22;671;48.972;9.276;2023-05-20T03:25:47;12.60;99.90
1355;DHT22;671;48.972;9.276;2023-05-20T03:28:13;12.60;99.90
1355;DHT22;671;48.972;9.276;2023-05-20T03:30:40;12.60;99.90
1355;DHT22;671;48.972;9.276;2023-05-20T03:33:07;12.60;99.90
1355;DHT22;671;48.972;9.276;2023-05-20T03:35:33;12.60;99.90
1355;DHT22;671;48.972;9.276;2023-05-20T03:38:00;12.70;99.90
1355;DHT22;671;48.972;9.276;2023-05-20T03:40:27;12.70;99.90
1355;DHT22;671;48.972;9.276;2023-05-20T03:42:53;12.80;99.90
1355;DHT22;671;48.972;9.276;2023-05-20T03:45:20;12.80;99.90
1355;DHT22;671;48.972;9.276;2023-05-20T03:47:46;12.90;99.90
1355;DHT22;671;48.972;9.276;2023-05-20T03:50:12;12.90;99.90
1355;DHT22;671;48.972;9.276;2023-05-20T03:52:39;12.90;99.90
1355;DHT22;671;48.972;9.276;2023-05-20T03:55:06;13.00;99.90
1355;DHT22;671;48.972;9.276;2023-05-20T03:57:33;13.00;99.90
1355;DHT22;671;48.972;9.276;2023-05-20T03:59:59;13.00;99.90
1355;DHT22;671;48.972;9.276;2023-05-20T04:02:27;13.00;99.90
1355;DHT22;671;48.972;9.276;2023-05-20T04:04:53;13.10;99.90
1355;DHT22;671;48.972;9.276;2023-05-20T04:07:23;13.10;99.90
1355;DHT22;671;48.972;9.276;2023-05-20T04:09:49;13.10;99.90
1355;DHT22;671;48.972;9.276;2023-05-20T04:12:16;13.10;99.90
1355;DHT22;671;48.972;9.276;2023-05-20T04:14:44;13.10;99.90
1355;DHT22;671;48.972;9.276;2023-05-20T04:17:11;13.20;99.90
1355;DHT22;671;48.972;9.276;2023-05-20T04:19:37;13.20;99.90
1355;DHT22;671;48.972;9.276;2023-05-20T04:22:04;13.20;99.90
1355;DHT22;671;48.972;9.276;2023-05-20T04:24:30;13.30;99.90
1355;DHT22;671;48.972;9.276;2023-05-20T04:26:57;13.40;99.90
1355;DHT22;671;48.972;9.276;2023-05-20T04:29:24;13.40;99.90
1355;DHT22;671;48.972;9.276;2023-05-20T04:31:50;13.50;99.90
1355;DHT22;671;48.972;9.276;2023-05-20T04:34:17;13.60;99.90
1355;DHT22;671;48.972;9.276;2023-05-20T04:36:45;13.60;99.90
1355;DHT22;671;48.972;9.276;2023-05-20T04:39:12;13.70;99.90
1355;DHT22;671;48.972;9.276;2023-05-20T04:41:39;13.70;99.90
1355;DHT22;671;48.972;9.276;2023-05-20T04:44:05;13.70;99.90
1355;DHT22;671;48.972;9.276;2023-05-20T04:46:32;13.80;99.90
1355;DHT22;671;48.972;9.276;2023-05-20T04:48:59;13.90;99.90
1355;DHT22;671;48.972;9.276;2023-05-20T04:51:25;14.00;99.90
1355;DHT22;671;48.972;9.276;2023-05-20T04:53:52;14.10;99.90
1355;DHT22;671;48.972;9.276;2023-05-20T04:56:18;14.20;99.90
1355;DHT22;671;48.972;9.276;2023-05-20T04:58:45;14.40;99.90
1355;DHT22;671;48.972;9.276;2023-05-20T05:01:11;14.50;99.90
1355;DHT22;671;48.972;9.276;2023-05-20T05:03:38;14.60;99.90
1355;DHT22;671;48.972;9.276;2023-05-20T05:06:05;14.70;99.90
1355;DHT22;671;48.972;9.276;2023-05-20T05:08:31;14.80;99.90
1355;DHT22;671;48.972;9.276;2023-05-20T05:10:58;15.00;99.90
1355;DHT22;671;48.972;9.276;2023-05-20T05:13:24;15.10;99.90
1355;DHT22;671;48.972;9.276;2023-05-20T05:16:01;15.30;99.90
1355;DHT22;671;48.972;9.276;2023-05-20T05:18:28;15.90;99.90
1355;DHT22;671;48.972;9.276;2023-05-20T05:21:04;17.40;99.90
1355;DHT22;671;48.972;9.276;2023-05-20T05:23:32;18.70;99.90
1355;DHT22;671;48.972;9.276;2023-05-20T05:25:58;19.50;99.90
1355;DHT22;671;48.972;9.276;2023-05-20T05:28:25;20.20;99.90
1355;DHT22;671;48.972;9.276;2023-05-20T05:30:53;20.40;99.90
1355;DHT22;671;48.972;9.276;2023-05-20T05:33:21;20.30;99.90
1355;DHT22;671;48.972;9.276;2023-05-20T05:35:49;20.60;99.90
1355;DHT22;671;48.972;9.276;2023-05-20T05:38:15;20.80;99.90
1355;DHT22;671;48.972;9.276;2023-05-20T05:40:42;20.90;99.90
1355;DHT22;671;48.972;9.276;2023-05-20T05:43:08;20.80;99.90
1355;DHT22;671;48.972;9.276;2023-05-20T05:45:35;20.30;99.90
1355;DHT22;671;48.972;9.276;2023-05-20T05:48:01;19.60;99.90
1355;DHT22;671;48.972;9.276;2023-05-20T05:50:28;19.00;99.90
1355;DHT22;671;48.972;9.276;2023-05-20T05:52:54;18.60;99.90
1355;DHT22;671;48.972;9.276;2023-05-20T05:55:21;18.40;99.90
1355;DHT22;671;48.972;9.276;2023-05-20T05:57:49;18.20;99.90
1355;DHT22;671;48.972;9.276;2023-05-20T06:00:16;18.00;99.90
1355;DHT22;671;48.972;9.276;2023-05-20T06:02:43;18.00;99.90
1355;DHT22;671;48.972;9.276;2023-05-20T06:05:09;17.90;99.90
1355;DHT22;671;48.972;9.276;2023-05-20T06:07:36;17.80;99.90
1355;DHT22;671;48.972;9.276;2023-05-20T06:10:03;17.70;99.90
1355;DHT22;671;48.972;9.276;2023-05-20T06:12:29;17.70;99.90
1355;DHT22;671;48.972;9.276;2023-05-20T06:14:56;17.60;99.90
1355;DHT22;671;48.972;9.276;2023-05-20T06:17:22;17.60;99.90
1355;DHT22;671;48.972;9.276;2023-05-20T06:19:49;17.60;99.90
1355;DHT22;671;48.972;9.276;2023-05-20T06:22:15;17.70;99.90
1355;DHT22;671;48.972;9.276;2023-05-20T06:24:42;17.60;99.90
1355;DHT22;671;48.972;9.276;2023-05-20T06:27:08;17.60;99.90
1355;DHT22;671;48.972;9.276;2023-05-20T06:29:35;17.70;99.90
1355;DHT22;671;48.972;9.276;2023-05-20T06:32:01;17.60;99.90
1355;DHT22;671;48.972;9.276;2023-05-20T06:34:27;17.70;99.90
1355;DHT22;671;48.972;9.276;2023-05-20T06:36:54;17.70;99.90
1355;DHT22;671;48.972;9.276;2023-05-20T06:39:21;17.80;99.90
1355;DHT22;671;48.972;9.276;2023-05-20T06:41:47;17.90;99.90
1355;DHT22;671;48.972;9.276;2023-05-20T06:44:14;17.90;99.90
1355;DHT22;671;48.972;9.276;2023-05-20T06:46:41;18.00;99.90
1355;DHT22;671;48.972;9.276;2023-05-20T06:49:07;18.00;99.90
1355;DHT22;671;48.972;9.276;2023-05-20T06:51:33;18.00;99.90
1355;DHT22;671;48.972;9.276;2023-05-20T06:54:00;18.10;99.90
1355;DHT22;671;48.972;9.276;2023-05-20T06:56:26;18.20;99.90
1355;DHT22;671;48.972;9.276;2023-05-20T06:58:54;18.20;99.90
1355;DHT22;671;48.972;9.276;2023-05-20T07:01:20;18.30;99.90
1355;DHT22;671;48.972;9.276;2023-05-20T07:03:47;18.30;99.90
1355;DHT22;671;48.972;9.276;2023-05-20T07:06:13;18.40;99.90
1355;DHT22;671;48.972;9.276;2023-05-20T07:08:40;18.50;99.90
1355;DHT22;671;48.972;9.276;2023-05-20T07:11:06;18.60;99.90
1355;DHT22;671;48.972;9.276;2023-05-20T07:13:33;18.70;99.90
1355;DHT22;671;48.972;9.276;2023-05-20T07:16:00;18.90;99.90
1355;DHT22;671;48.972;9.276;2023-05-20T07:18:26;19.00;99.90
1355;DHT22;671;48.972;9.276;2023-05-20T07:20:54;19.10;99.90
1355;DHT22;671;48.972;9.276;2023-05-20T07:23:22;19.10;99.90
1355;DHT22;671;48.972;9.276;2023-05-20T07:25:49;19.10;99.90
1355;DHT22;671;48.972;9.276;2023-05-20T07:28:16;19.30;99.90
1355;DHT22;671;48.972;9.276;2023-05-20T07:30:43;19.60;99.90
1355;DHT22;671;48.972;9.276;2023-05-20T07:33:16;19.70;99.90
1355;DHT22;671;48.972;9.276;2023-05-20T07:35:43;19.80;99.90
1355;DHT22;671;48.972;9.276;2023-05-20T07:38:11;19.90;99.90
1355;DHT22;671;48.972;9.276;2023-05-20T07:40:39;19.90;99.90
1355;DHT22;671;48.972;9.276;2023-05-20T07:43:07;20.00;99.90
1355;DHT22;671;48.972;9.276;2023-05-20T07:45:34;20.10;99.90
1355;DHT22;671;48.972;9.276;2023-05-20T07:48:03;20.20;99.90
1355;DHT22;671;48.972;9.276;2023-05-20T07:50:29;20.30;99.90
1355;DHT22;671;48.972;9.276;2023-05-20T07:52:56;20.40;99.90
1355;DHT22;671;48.972;9.276;2023-05-20T07:55:22;20.30;99.90
1355;DHT22;671;48.972;9.276;2023-05-20T07:57:49;20.30;99.90
1355;DHT22;671;48.972;9.276;2023-05-20T08:00:16;20.20;99.90
1355;DHT22;671;48.972;9.276;2023-05-20T08:02:42;20.30;99.90
1355;DHT22;671;48.972;9.276;2023-05-20T08:05:09;20.50;99.90
1355;DHT22;671;48.972;9.276;2023-05-20T08:07:36;20.40;99.90
1355;DHT22;671;48.972;9.276;2023-05-20T08:10:02;20.50;99.90
1355;DHT22;671;48.972;9.276;2023-05-20T08:12:29;20.60;99.90
1355;DHT22;671;48.972;9.276;2023-05-20T08:14:55;20.90;99.90
1355;DHT22;671;48.972;9.276;2023-05-20T08:17:22;21.20;99.90
1355;DHT22;671;48.972;9.276;2023-05-20T08:19:48;21.50;99.90
1355;DHT22;671;48.972;9.276;2023-05-20T08:22:15;21.70;99.90
1355;DHT22;671;48.972;9.276;2023-05-20T08:24:42;21.90;99.90
1355;DHT22;671;48.972;9.276;2023-05-20T08:27:08;22.00;99.90
1355;DHT22;671;48.972;9.276;2023-05-20T08:29:35;22.10;99.90
1355;DHT22;671;48.972;9.276;2023-05-20T08:32:01;22.00;99.90
1355;DHT22;671;48.972;9.276;2023-05-20T08:34:28;21.90;99.90
1355;DHT22;671;48.972;9.276;2023-05-20T08:36:54;21.90;99.90
1355;DHT22;671;48.972;9.276;2023-05-20T08:39:23;22.10;99.90
1355;DHT22;671;48.972;9.276;2023-05-20T08:41:50;22.30;99.90
1355;DHT22;671;48.972;9.276;2023-05-20T08:44:17;22.40;99.90
1355;DHT22;671;48.972;9.276;2023-05-20T08:46:45;22.60;99.90
1355;DHT22;671;48.972;9.276;2023-05-20T08:49:11;22.70;99.90
1355;DHT22;671;48.972;9.276;2023-05-20T08:51:38;22.70;99.90
1355;DHT22;671;48.972;9.276;2023-05-20T08:54:06;22.70;99.90
1355;DHT22;671;48.972;9.276;2023-05-20T08:56:33;22.70;99.90
1355;DHT22;671;48.972;9.276;2023-05-20T08:59:00;22.60;99.90
1355;DHT22;671;48.972;9.276;2023-05-20T09:01:28;22.40;99.90
1355;DHT22;671;48.972;9.276;2023-05-20T09:03:55;22.40;99.90
1355;DHT22;671;48.972;9.276;2023-05-20T09:06:22;22.40;99.90
1355;DHT22;671;48.972;9.276;2023-05-20T09:08:49;22.60;99.90
1355;DHT22;671;48.972;9.276;2023-05-20T09:11:17;22.80;99.90
1355;DHT22;671;48.972;9.276;2023-05-20T09:13:44;22.90;99.90
1355;DHT22;671;48.972;9.276;2023-05-20T09:16:10;23.00;99.90
1355;DHT22;671;48.972;9.276;2023-05-20T09:18:38;22.90;99.90
1355;DHT22;671;48.972;9.276;2023-05-20T09:21:05;22.90;99.90
1355;DHT22;671;48.972;9.276;2023-05-20T09:23:32;22.90;99.90
1355;DHT22;671;48.972;9.276;2023-05-20T09:26:00;22.90;99.90
1355;DHT22;671;48.972;9.276;2023-05-20T09:28:29;22.90;99.90
1355;DHT22;671;48.972;9.276;2023-05-20T09:30:59;23.00;99.90
1355;DHT22;671;48.972;9.276;2023-05-20T09:33:27;22.80;99.90
1355;DHT22;671;48.972;9.276;2023-05-20T09:36:06;22.80;99.90
1355;DHT22;671;48.972;9.276;2023-05-20T09:38:36;22.80;99.90
1355;DHT22;671;48.972;9.276;2023-05-20T09:41:11;22.80;99.90
1355;DHT22;671;48.972;9.276;2023-05-20T09:43:41;22.90;99.90
1355;DHT22;671;48.972;9.276;2023-05-20T09:46:08;23.00;99.90
1355;DHT22;671;48.972;9.276;2023-05-20T09:48:36;23.00;99.90
1355;DHT22;671;48.972;9.276;2023-05-20T09:51:04;23.10;99.90
1355;DHT22;671;48.972;9.276;2023-05-20T09:53:31;23.10;99.90
1355;DHT22;671;48.972;9.276;2023-05-20T09:55:58;23.20;99.90
1355;DHT22;671;48.972;9.276;2023-05-20T09:58:24;23.30;99.90
1355;DHT22;671;48.972;9.276;2023-05-20T10:00:51;23.50;99.90
1355;DHT22;671;48.972;9.276;2023-05-20T10:03:21;23.60;99.90
1355;DHT22;671;48.972;9.276;2023-05-20T10:12:09;23.70;99.90
1355;DHT22;671;48.972;9.276;2023-05-20T10:19:59;24.30;99.90
1355;DHT22;671;48.972;9.276;2023-05-20T10:22:27;24.20;99.90
1355;DHT22;671;48.972;9.276;2023-05-20T10:24:59;24.30;99.90
1355;DHT22;671;48.972;9.276;2023-05-20T10:27:25;24.30;99.90
1355;DHT22;671;48.972;9.276;2023-05-20T10:29:55;24.40;99.90
1355;DHT22;671;48.972;9.276;2023-05-20T10:32:30;24.50;99.90
1355;DHT22;671;48.972;9.276;2023-05-20T10:35:01;24.70;99.50
1355;DHT22;671;48.972;9.276;2023-05-20T10:37:32;24.90;99.90
1355;DHT22;671;48.972;9.276;2023-05-20T10:40:07;24.80;99.50
1355;DHT22;671;48.972;9.276;2023-05-20T10:42:34;24.70;99.50
1355;DHT22;671;48.972;9.276;2023-05-20T10:45:01;24.80;99.50
1355;DHT22;671;48.972;9.276;2023-05-20T10:47:28;24.90;99.80
1355;DHT22;671;48.972;9.276;2023-05-20T10:49:55;24.80;99.00
1355;DHT22;671;48.972;9.276;2023-05-20T10:52:23;24.80;99.20
1355;DHT22;671;48.972;9.276;2023-05-20T10:57:20;25.40;98.80
1355;DHT22;671;48.972;9.276;2023-05-20T10:59:47;25.30;98.70
1355;DHT22;671;48.972;9.276;2023-05-20T11:02:15;25.30;97.60
1355;DHT22;671;48.972;9.276;2023-05-20T11:04:45;25.30;97.60
1355;DHT22;671;48.972;9.276;2023-05-20T11:07:12;25.40;99.00
1355;DHT22;671;48.972;9.276;2023-05-20T11:09:39;25.40;97.50
1355;DHT22;671;48.972;9.276;2023-05-20T11:12:14;25.30;98.40
1355;DHT22;671;48.972;9.276;2023-05-20T11:14:41;25.20;97.90
1355;DHT22;671;48.972;9.276;2023-05-20T11:17:07;25.20;97.50
1355;DHT22;671;48.972;9.276;2023-05-20T11:19:36;25.10;97.70
1355;DHT22;671;48.972;9.276;2023-05-20T11:22:05;25.10;97.40
1355;DHT22;671;48.972;9.276;2023-05-20T11:24:32;24.90;98.00
1355;DHT22;671;48.972;9.276;2023-05-20T11:27:00;24.90;98.10
1355;DHT22;671;48.972;9.276;2023-05-20T11:29:27;24.80;98.60
1355;DHT22;671;48.972;9.276;2023-05-20T11:32:00;24.70;97.50
1355;DHT22;671;48.972;9.276;2023-05-20T11:34:33;24.80;97.50
1355;DHT22;671;48.972;9.276;2023-05-20T11:37:00;24.80;97.20
1355;DHT22;671;48.972;9.276;2023-05-20T11:39:30;25.00;98.10
1355;DHT22;671;48.972;9.276;2023-05-20T11:41:58;25.10;98.70
1355;DHT22;671;48.972;9.276;2023-05-20T11:44:24;25.30;97.50
1355;DHT22;671;48.972;9.276;2023-05-20T11:46:58;25.30;98.00
1355;DHT22;671;48.972;9.276;2023-05-20T11:49:25;25.60;97.80
1355;DHT22;671;48.972;9.276;2023-05-20T11:51:52;25.80;96.70
1355;DHT22;671;48.972;9.276;2023-05-20T11:54:21;26.00;96.60
1355;DHT22;671;48.972;9.276;2023-05-20T11:56:48;26.20;96.10
1355;DHT22;671;48.972;9.276;2023-05-20T11:59:15;26.20;96.30
1355;DHT22;671;48.972;9.276;2023-05-20T12:01:42;26.30;96.30
1355;DHT22;671;48.972;9.276;2023-05-20T12:04:09;26.40;96.40
1355;DHT22;671;48.972;9.276;2023-05-20T12:06:35;26.40;96.30
1355;DHT22;671;48.972;9.276;2023-05-20T12:09:06;26.20;96.30
1355;DHT22;671;48.972;9.276;2023-05-20T12:11:37;26.00;96.20
1355;DHT22;671;48.972;9.276;2023-05-20T12:14:06;25.70;96.80
1355;DHT22;671;48.972;9.276;2023-05-20T12:16:34;25.60;97.30
1355;DHT22;671;48.972;9.276;2023-05-20T12:19:01;25.40;96.00
1355;DHT22;671;48.972;9.276;2023-05-20T12:21:28;25.30;96.00
1355;DHT22;671;48.972;9.276;2023-05-20T12:23:55;25.30;96.70
1355;DHT22;671;48.972;9.276;2023-05-20T12:26:24;25.20;96.40
1355;DHT22;671;48.972;9.276;2023-05-20T12:28:51;25.20;96.10
1355;DHT22;671;48.972;9.276;2023-05-20T12:31:17;25.30;97.30
1355;DHT22;671;48.972;9.276;2023-05-20T12:33:44;25.50;97.60
1355;DHT22;671;48.972;9.276;2023-05-20T12:36:11;25.50;96.50
1355;DHT22;671;48.972;9.276;2023-05-20T12:38:38;25.60;96.60
1355;DHT22;671;48.972;9.276;2023-05-20T12:41:05;25.90;97.30
1355;DHT22;671;48.972;9.276;2023-05-20T12:43:31;26.10;96.50
1355;DHT22;671;48.972;9.276;2023-05-20T12:45:58;26.20;96.00
1355;DHT22;671;48.972;9.276;2023-05-20T12:48:24;26.20;95.80
1355;DHT22;671;48.972;9.276;2023-05-20T12:50:51;26.30;95.40
1355;DHT22;671;48.972;9.276;2023-05-20T12:53:17;26.40;95.40
1355;DHT22;671;48.972;9.276;2023-05-20T12:55:44;26.60;95.60
1355;DHT22;671;48.972;9.276;2023-05-20T12:58:10;26.60;96.00
1355;DHT22;671;48.972;9.276;2023-05-20T13:00:37;26.50;95.10
1355;DHT22;671;48.972;9.276;2023-05-20T13:03:03;26.40;95.40
1355;DHT22;671;48.972;9.276;2023-05-20T13:05:30;26.30;96.10
1355;DHT22;671;48.972;9.276;2023-05-20T13:07:57;26.40;96.80
1355;DHT22;671;48.972;9.276;2023-05-20T13:10:23;26.50;95.30
1355;DHT22;671;48.972;9.276;2023-05-20T13:12:50;26.60;95.30
1355;DHT22;671;48.972;9.276;2023-05-20T13:15:16;26.50;95.50
1355;DHT22;671;48.972;9.276;2023-05-20T13:17:43;26.30;95.10
1355;DHT22;671;48.972;9.276;2023-05-20T13:20:10;26.30;96.30
1355;DHT22;671;48.972;9.276;2023-05-20T13:22:37;26.20;94.60
1355;DHT22;671;48.972;9.276;2023-05-20T13:25:04;26.40;95.10
1355;DHT22;671;48.972;9.276;2023-05-20T13:27:30;26.70;94.60
1355;DHT22;671;48.972;9.276;2023-05-20T13:29:57;27.00;95.00
1355;DHT22;671;48.972;9.276;2023-05-20T13:32:23;27.20;94.40
1355;DHT22;671;48.972;9.276;2023-05-20T13:34:50;27.30;94.10
1355;DHT22;671;48.972;9.276;2023-05-20T13:37:17;27.50;93.60
1355;DHT22;671;48.972;9.276;2023-05-20T13:39:43;27.40;93.70
1355;DHT22;671;48.972;9.276;2023-05-20T13:42:10;27.40;93.40
1355;DHT22;671;48.972;9.276;2023-05-20T13:44:36;27.30;93.10
1355;DHT22;671;48.972;9.276;2023-05-20T13:47:03;27.30;93.70
1355;DHT22;671;48.972;9.276;2023-05-20T13:49:29;27.20;92.80
1355;DHT22;671;48.972;9.276;2023-05-20T13:51:56;27.00;93.40
1355;DHT22;671;48.972;9.276;2023-05-20T13:54:23;26.90;93.40
1355;DHT22;671;48.972;9.276;2023-05-20T13:56:49;27.00;93.20
1355;DHT22;671;48.972;9.276;2023-05-20T13:59:16;27.20;92.80
1355;DHT22;671;48.972;9.276;2023-05-20T14:01:43;27.40;93.60
1355;DHT22;671;48.972;9.276;2023-05-20T14:04:11;27.60;92.80
1355;DHT22;671;48.972;9.276;2023-05-20T14:06:40;27.50;91.80
1355;DHT22;671;48.972;9.276;2023-05-20T14:09:07;27.80;93.30
1355;DHT22;671;48.972;9.276;2023-05-20T14:11:34;27.80;92.50
1355;DHT22;671;48.972;9.276;2023-05-20T14:14:01;27.90;92.50
1355;DHT22;671;48.972;9.276;2023-05-20T14:16:27;28.00;92.30
1355;DHT22;671;48.972;9.276;2023-05-20T14:18:54;28.10;92.50
1355;DHT22;671;48.972;9.276;2023-05-20T14:21:20;28.00;92.50
1355;DHT22;671;48.972;9.276;2023-05-20T14:23:49;28.00;91.60
1355;DHT22;671;48.972;9.276;2023-05-20T14:26:16;27.80;91.90
1355;DHT22;671;48.972;9.276;2023-05-20T14:28:43;27.70;91.80
1355;DHT22;671;48.972;9.276;2023-05-20T14:31:09;27.50;92.00
1355;DHT22;671;48.972;9.276;2023-05-20T14:33:36;27.30;91.60
1355;DHT22;671;48.972;9.276;2023-05-20T14:36:03;27.10;91.70
1355;DHT22;671;48.972;9.276;2023-05-20T14:38:29;27.00;92.30
1355;DHT22;671;48.972;9.276;2023-05-20T14:40:56;26.90;92.70
1355;DHT22;671;48.972;9.276;2023-05-20T14:43:22;26.90;93.30
1355;DHT22;671;48.972;9.276;2023-05-20T14:45:49;27.00;92.60
1355;DHT22;671;48.972;9.276;2023-05-20T14:48:15;26.90;92.90
1355;DHT22;671;48.972;9.276;2023-05-20T14:50:42;26.80;92.90
1355;DHT22;671;48.972;9.276;2023-05-20T14:53:08;26.80;92.70
1355;DHT22;671;48.972;9.276;2023-05-20T14:55:35;26.90;93.50
1355;DHT22;671;48.972;9.276;2023-05-20T14:58:01;26.90;92.90
1355;DHT22;671;48.972;9.276;2023-05-20T15:00:28;26.80;93.20
1355;DHT22;671;48.972;9.276;2023-05-20T15:02:54;26.80;93.30
1355;DHT22;671;48.972;9.276;2023-05-20T15:05:21;26.60;92.70
1355;DHT22;671;48.972;9.276;2023-05-20T15:07:47;26.60;92.90
1355;DHT22;671;48.972;9.276;2023-05-20T15:10:14;26.60;92.30
1355;DHT22;671;48.972;9.276;2023-05-20T15:12:41;26.70;92.50
1355;DHT22;671;48.972;9.276;2023-05-20T15:15:08;26.70;92.70
1355;DHT22;671;48.972;9.276;2023-05-20T15:17:35;26.70;93.40
1355;DHT22;671;48.972;9.276;2023-05-20T15:20:02;26.80;92.80
1355;DHT22;671;48.972;9.276;2023-05-20T15:22:28;26.80;93.30
1355;DHT22;671;48.972;9.276;2023-05-20T15:24:55;26.80;93.20
1355;DHT22;671;48.972;9.276;2023-05-20T15:27:21;26.70;92.60
1355;DHT22;671;48.972;9.276;2023-05-20T15:29:48;26.70;92.60
1355;DHT22;671;48.972;9.276;2023-05-20T15:32:14;26.60;92.20
1355;DHT22;671;48.972;9.276;2023-05-20T15:34:41;26.40;92.30
1355;DHT22;671;48.972;9.276;2023-05-20T15:37:08;26.20;92.50
1355;DHT22;671;48.972;9.276;2023-05-20T15:39:36;26.20;93.20
1355;DHT22;671;48.972;9.276;2023-05-20T15:42:04;26.10;92.90
1355;DHT22;671;48.972;9.276;2023-05-20T15:44:31;26.00;93.00
1355;DHT22;671;48.972;9.276;2023-05-20T15:46:58;26.00;93.80
1355;DHT22;671;48.972;9.276;2023-05-20T15:49:25;25.90;93.90
1355;DHT22;671;48.972;9.276;2023-05-20T15:51:51;25.80;94.30
1355;DHT22;671;48.972;9.276;2023-05-20T15:54:18;25.80;94.30
1355;DHT22;671;48.972;9.276;2023-05-20T15:56:45;25.70;93.80
1355;DHT22;671;48.972;9.276;2023-05-20T15:59:11;25.70;94.20
1355;DHT22;671;48.972;9.276;2023-05-20T16:01:38;25.50;95.30
1355;DHT22;671;48.972;9.276;2023-05-20T16:04:05;25.20;96.00
1355;DHT22;671;48.972;9.276;2023-05-20T16:06:31;25.00;96.60
1355;DHT22;671;48.972;9.276;2023-05-20T16:08:59;25.00;97.00
1355;DHT22;671;48.972;9.276;2023-05-20T16:11:26;24.90;96.80
1355;DHT22;671;48.972;9.276;2023-05-20T16:13:52;24.80;96.90
1355;DHT22;671;48.972;9.276;2023-05-20T16:16:19;24.70;97.10
1355;DHT22;671;48.972;9.276;2023-05-20T16:18:45;24.70;97.40
1355;DHT22;671;48.972;9.276;2023-05-20T16:21:12;24.60;97.10
1355;DHT22;671;48.972;9.276;2023-05-20T16:23:38;24.60;97.30
1355;DHT22;671;48.972;9.276;2023-05-20T16:26:05;24.60;97.50
1355;DHT22;671;48.972;9.276;2023-05-20T16:28:31;24.60;97.60
1355;DHT22;671;48.972;9.276;2023-05-20T16:30:58;24.60;98.00